createdAt,value
2023-02-16T00:00:50.004Z,70.68
2023-02-16T00:03:36.027Z,68.07
2023-02-16T00:06:21.757Z,66.85
2023-02-16T00:09:07.367Z,76.25
2023-02-16T00:12:13.282Z,77.20
2023-02-16T00:14:58.727Z,68.93
2023-02-16T00:17:44.630Z,67.10
2023-02-16T00:20:30.501Z,71.57
2023-02-16T00:23:16.201Z,67.65
2023-02-16T00:26:01.982Z,67.22
2023-02-16T00:28:52.048Z,68.57
2023-02-16T00:31:37.830Z,65.97
2023-02-16T00:34:32.745Z,70.93
2023-02-16T00:37:18.925Z,69.10
2023-02-16T00:40:04.886Z,69.72
2023-02-16T00:42:50.305Z,68.22
2023-02-16T00:45:38.087Z,67.57
2023-02-16T00:48:24.408Z,67.90
2023-02-16T00:51:25.221Z,69.97
2023-02-16T00:54:11.811Z,67.40
2023-02-16T00:56:57.984Z,73.60
2023-02-16T00:59:44.052Z,75.93
2023-02-16T01:02:30.940Z,68.97
2023-02-16T01:05:17.062Z,75.07
2023-02-16T01:08:25.032Z,69.82
2023-02-16T01:11:10.761Z,72.43
2023-02-16T01:13:59.532Z,70.35
2023-02-16T01:16:45.836Z,75.43
2023-02-16T01:19:32.867Z,69.15
2023-02-16T01:22:18.780Z,69.35
2023-02-16T01:25:04.985Z,75.45
2023-02-16T01:27:50.507Z,62.60
2023-02-16T01:30:36.010Z,64.10
2023-02-16T01:33:22.023Z,68.20
2023-02-16T01:36:19.859Z,69.07
2023-02-16T01:39:05.862Z,71.50
2023-02-16T01:42:02.512Z,69.82
2023-02-16T01:44:51.103Z,72.43
2023-02-16T01:47:41.733Z,69.45
2023-02-16T01:50:34.238Z,50.95
2023-02-16T01:53:26.743Z,73.28
2023-02-16T01:56:24.436Z,73.80
2023-02-16T01:59:17.707Z,71.38
2023-02-16T02:02:05.655Z,68.88
2023-02-16T02:05:15.768Z,73.50
2023-02-16T02:08:07.496Z,74.38
2023-02-16T02:11:05.852Z,73.22
2023-02-16T02:13:57.898Z,71.75
2023-02-16T02:16:55.033Z,70.88
2023-02-16T02:19:49.415Z,68.72
2023-02-16T02:23:24.577Z,71.88
2023-02-16T02:26:56.234Z,69.30
2023-02-16T02:30:08.098Z,72.82
2023-02-16T02:33:10.647Z,69.68
2023-02-16T02:36:08.602Z,72.97
2023-02-16T02:39:04.356Z,67.47
2023-02-16T02:42:06.916Z,71.45
2023-02-16T02:45:14.149Z,72.68
2023-02-16T02:48:00.026Z,75.18
2023-02-16T02:51:09.811Z,69.15
2023-02-16T02:54:18.735Z,76.28
2023-02-16T02:57:31.437Z,74.45
2023-02-16T03:00:40.081Z,66.13
2023-02-16T03:03:32.189Z,67.35
2023-02-16T03:06:23.638Z,70.90
2023-02-16T03:09:12.160Z,68.05
2023-02-16T03:12:18.610Z,67.97
2023-02-16T03:15:06.521Z,68.32
2023-02-16T03:18:13.928Z,69.25
2023-02-16T03:21:18.754Z,69.68
2023-02-16T03:24:27.210Z,74.75
2023-02-16T03:27:32.797Z,70.25
2023-02-16T03:30:21.034Z,70.63
2023-02-16T03:33:06.960Z,73.65
2023-02-16T03:35:53.418Z,75.25
2023-02-16T03:38:39.438Z,73.35
2023-02-16T03:41:25.859Z,78.78
2023-02-16T03:44:11.225Z,72.60
2023-02-16T03:46:58.109Z,73.03
2023-02-16T03:49:43.562Z,72.63
2023-02-16T03:52:29.111Z,68.80
2023-02-16T03:55:15.323Z,74.00
2023-02-16T03:58:01.072Z,73.97
2023-02-16T04:00:46.940Z,77.20
2023-02-16T04:03:34.237Z,76.28
2023-02-16T04:06:20.062Z,77.68
2023-02-16T04:09:05.688Z,74.50
2023-02-16T04:12:09.673Z,75.00
2023-02-16T04:14:55.283Z,72.85
2023-02-16T04:17:40.700Z,77.28
2023-02-16T04:20:32.063Z,73.22
2023-02-16T04:23:17.836Z,70.88
2023-02-16T04:26:03.627Z,76.63
2023-02-16T04:28:49.299Z,71.95
2023-02-16T04:31:35.114Z,68.18
2023-02-16T04:34:20.731Z,77.05
2023-02-16T04:37:07.818Z,70.43
2023-02-16T04:39:53.948Z,68.55
2023-02-16T04:42:39.754Z,70.35
2023-02-16T04:45:25.301Z,72.15
2023-02-16T04:48:10.820Z,75.35
2023-02-16T04:50:56.556Z,73.38
2023-02-16T04:53:43.508Z,74.38
2023-02-16T04:56:29.454Z,70.88
2023-02-16T04:59:16.135Z,78.22
2023-02-16T05:02:01.885Z,77.78
2023-02-16T05:04:47.798Z,71.85
2023-02-16T05:07:33.517Z,73.97
2023-02-16T05:10:20.673Z,70.82
2023-02-16T05:13:24.481Z,75.93
2023-02-16T05:16:11.557Z,74.00
2023-02-16T05:18:58.917Z,75.57
2023-02-16T05:21:44.565Z,76.20
2023-02-16T05:24:30.381Z,75.57
2023-02-16T05:27:19.291Z,79.90
2023-02-16T05:30:05.841Z,76.72
2023-02-16T05:32:51.344Z,74.35
2023-02-16T05:35:36.987Z,73.50
2023-02-16T05:38:22.654Z,75.57
2023-02-16T05:41:08.177Z,77.85
2023-02-16T05:43:57.325Z,75.15
2023-02-16T05:46:43.448Z,73.38
2023-02-16T05:49:29.344Z,79.32
2023-02-16T05:52:15.214Z,72.13
2023-02-16T05:55:00.841Z,78.07
2023-02-16T05:57:46.293Z,80.13
2023-02-16T06:00:33.722Z,77.15
2023-02-16T06:03:19.413Z,82.72
2023-02-16T06:06:06.155Z,76.45
2023-02-16T06:08:52.053Z,76.50
2023-02-16T06:11:37.812Z,75.22
2023-02-16T06:14:23.965Z,74.07
2023-02-16T06:17:11.130Z,79.75
2023-02-16T06:19:57.079Z,79.30
2023-02-16T06:22:42.436Z,79.38
2023-02-16T06:25:28.172Z,75.20
2023-02-16T06:28:13.995Z,78.50
2023-02-16T06:30:59.774Z,75.07
2023-02-16T06:33:47.801Z,77.72
2023-02-16T06:36:34.477Z,76.00
2023-02-16T06:39:20.398Z,76.05
2023-02-16T06:42:06.317Z,73.28
2023-02-16T06:44:52.037Z,71.72
2023-02-16T06:47:38.369Z,80.63
2023-02-16T06:50:25.592Z,74.35
2023-02-16T06:53:11.747Z,76.97
2023-02-16T06:55:57.341Z,74.60
2023-02-16T06:58:42.946Z,76.53
2023-02-16T07:01:28.971Z,69.53
2023-02-16T07:04:15.160Z,78.65
2023-02-16T07:07:02.744Z,82.75
2023-02-16T07:09:48.284Z,76.72
2023-02-16T07:12:34.155Z,71.88
2023-02-16T07:15:19.932Z,72.38
2023-02-16T07:18:06.082Z,67.57
2023-02-16T07:20:51.999Z,74.40
2023-02-16T07:23:41.582Z,73.35
2023-02-16T07:26:27.228Z,77.30
2023-02-16T07:29:12.823Z,73.18
2023-02-16T07:31:58.978Z,70.80
2023-02-16T07:34:45.786Z,72.32
2023-02-16T07:37:31.310Z,81.05
2023-02-16T07:40:18.363Z,72.28
2023-02-16T07:43:05.944Z,70.07
2023-02-16T07:45:52.106Z,72.47
2023-02-16T07:48:38.256Z,70.57
2023-02-16T07:51:24.621Z,75.07
2023-02-16T07:54:10.660Z,66.15
2023-02-16T07:56:57.793Z,72.75
2023-02-16T07:59:43.884Z,66.18
2023-02-16T08:02:29.802Z,69.90
2023-02-16T08:05:15.952Z,66.95
2023-02-16T08:08:01.896Z,64.25
2023-02-16T08:10:47.846Z,70.85
2023-02-16T08:13:38.062Z,66.53
2023-02-16T08:16:25.656Z,63.97
2023-02-16T08:19:13.151Z,60.47
2023-02-16T08:21:59.807Z,70.70
2023-02-16T08:24:45.656Z,69.13
2023-02-16T08:27:31.398Z,67.10
2023-02-16T08:30:20.554Z,66.68
2023-02-16T08:33:06.502Z,67.22
2023-02-16T08:35:52.422Z,66.93
2023-02-16T08:38:37.916Z,66.97
2023-02-16T08:41:28.302Z,67.88
2023-02-16T08:44:17.358Z,65.53
2023-02-16T08:47:04.468Z,67.93
2023-02-16T08:49:50.224Z,63.92
2023-02-16T08:52:36.246Z,60.65
2023-02-16T08:55:22.974Z,63.65
2023-02-16T08:58:08.415Z,67.10
2023-02-16T09:00:54.451Z,63.90
2023-02-16T09:03:43.278Z,63.25
2023-02-16T09:06:29.290Z,62.65
2023-02-16T09:09:15.319Z,67.47
2023-02-16T09:12:01.746Z,66.97
2023-02-16T09:14:47.296Z,64.07
2023-02-16T09:17:33.097Z,66.18
2023-02-16T09:20:27.600Z,65.02
2023-02-16T09:23:16.531Z,63.65
2023-02-16T09:26:03.096Z,66.35
2023-02-16T09:28:50.551Z,62.70
2023-02-16T09:31:37.447Z,67.78
2023-02-16T09:34:23.689Z,74.60
2023-02-16T09:37:10.861Z,70.03
2023-02-16T09:39:57.104Z,72.15
2023-02-16T09:42:54.152Z,77.35
2023-02-16T09:45:43.461Z,76.80
2023-02-16T09:48:35.928Z,75.60
2023-02-16T09:51:33.862Z,75.57
2023-02-16T09:54:32.571Z,81.35
2023-02-16T09:57:23.731Z,78.68
2023-02-16T10:00:23.375Z,83.32
2023-02-16T10:03:26.979Z,76.25
2023-02-16T10:06:28.287Z,78.78
2023-02-16T10:09:17.218Z,78.85
2023-02-16T10:12:09.461Z,75.78
2023-02-16T10:15:00.422Z,95.43
2023-02-16T10:17:48.909Z,94.40
2023-02-16T10:20:37.595Z,76.57
2023-02-16T10:23:45.233Z,80.00
2023-02-16T10:26:35.308Z,88.50
2023-02-16T10:29:23.972Z,81.63
2023-02-16T10:32:19.196Z,83.05
2023-02-16T10:35:15.126Z,81.85
2023-02-16T10:38:07.528Z,83.43
2023-02-16T10:40:56.508Z,87.15
2023-02-16T10:43:46.854Z,93.95
2023-02-16T10:46:40.037Z,86.35
2023-02-16T10:49:27.008Z,86.97
2023-02-16T10:52:13.007Z,91.38
2023-02-16T10:54:58.639Z,88.97
2023-02-16T10:57:50.695Z,94.35
2023-02-16T11:00:51.760Z,91.55
2023-02-16T11:03:44.994Z,88.22
2023-02-16T11:06:30.985Z,88.85
2023-02-16T11:09:16.931Z,92.10
2023-02-16T11:12:13.753Z,87.47
2023-02-16T11:15:03.561Z,90.78
2023-02-16T11:17:51.419Z,84.85
2023-02-16T11:20:53.098Z,90.32
2023-02-16T11:23:40.540Z,86.10
2023-02-16T11:26:26.976Z,94.72
2023-02-16T11:29:22.285Z,83.07
2023-02-16T11:32:10.382Z,93.22
2023-02-16T11:34:56.135Z,92.05
2023-02-16T11:37:43.326Z,81.75
2023-02-16T11:40:31.752Z,84.68
2023-02-16T11:43:18.647Z,78.50
2023-02-16T11:46:09.969Z,82.63
2023-02-16T11:51:41.845Z,75.68
2023-02-16T11:54:28.724Z,71.10
2023-02-16T11:57:15.853Z,74.10
2023-02-16T12:00:15.753Z,60.60
2023-02-16T12:03:19.093Z,63.90
2023-02-16T12:06:18.515Z,61.20
2023-02-16T12:09:19.629Z,60.38
2023-02-16T12:12:14.714Z,63.10
2023-02-16T12:15:12.873Z,65.50
2023-02-16T12:18:22.893Z,61.42
2023-02-16T12:21:20.569Z,59.10
2023-02-16T12:24:21.951Z,53.97
2023-02-16T12:27:17.650Z,56.30
2023-02-16T12:30:13.212Z,58.53
2023-02-16T12:33:08.328Z,57.45
2023-02-16T12:36:04.828Z,53.38
2023-02-16T12:39:02.769Z,55.67
2023-02-16T12:42:00.633Z,59.85
2023-02-16T12:44:51.017Z,65.70
2023-02-16T12:47:42.441Z,55.10
2023-02-16T12:50:31.010Z,52.40
2023-02-16T12:53:22.806Z,59.67
2023-02-16T12:56:12.643Z,55.65
2023-02-16T12:59:07.383Z,54.45
2023-02-16T13:01:56.467Z,54.33
2023-02-16T13:04:45.771Z,49.67
2023-02-16T13:07:35.442Z,45.47
2023-02-16T13:10:24.457Z,47.53
2023-02-16T13:13:15.314Z,47.72
2023-02-16T13:18:56.154Z,43.92
2023-02-16T13:22:04.601Z,43.78
2023-02-16T13:25:05.426Z,38.20
2023-02-16T13:28:03.367Z,44.10
2023-02-16T13:31:05.625Z,42.85
2023-02-16T13:34:11.975Z,42.75
2023-02-16T13:37:18.149Z,45.50
2023-02-16T13:40:27.391Z,45.60
2023-02-16T13:43:22.287Z,44.75
2023-02-16T13:46:15.563Z,42.13
2023-02-16T13:49:03.408Z,42.72
2023-02-16T13:51:49.969Z,43.40
2023-02-16T13:54:39.918Z,40.03
2023-02-16T13:58:02.302Z,42.20
2023-02-16T14:00:48.971Z,42.50
2023-02-16T14:03:38.071Z,46.25
2023-02-16T14:06:37.012Z,43.28
2023-02-16T14:09:45.922Z,44.38
2023-02-16T14:12:36.893Z,42.08
2023-02-16T14:15:22.815Z,40.70
2023-02-16T14:18:21.524Z,39.80
2023-02-16T14:21:18.267Z,40.38
2023-02-16T14:24:10.887Z,34.35
2023-02-16T14:27:01.676Z,37.20
2023-02-16T14:29:56.698Z,39.38
2023-02-16T14:32:48.935Z,34.33
2023-02-16T14:35:37.186Z,33.55
2023-02-16T14:38:27.116Z,39.28
2023-02-16T14:41:25.855Z,34.10
2023-02-16T14:44:34.059Z,32.75
2023-02-16T14:47:31.970Z,33.78
2023-02-16T14:50:29.232Z,37.80
2023-02-16T14:53:37.579Z,35.17
2023-02-16T14:56:38.408Z,33.95
2023-02-16T14:59:31.750Z,33.45
2023-02-16T15:02:27.008Z,35.97
2023-02-16T15:05:17.827Z,34.63
2023-02-16T15:08:11.411Z,31.10
2023-02-16T15:10:57.160Z,32.13
2023-02-16T15:13:45.132Z,32.50
2023-02-16T15:16:32.872Z,34.58
2023-02-16T15:19:29.599Z,28.27
2023-02-16T15:22:20.031Z,28.33
2023-02-16T15:25:19.952Z,30.10
2023-02-16T15:28:18.899Z,31.27
2023-02-16T15:31:10.794Z,30.88
2023-02-16T15:33:58.348Z,27.77
2023-02-16T15:36:45.244Z,27.98
2023-02-16T15:39:43.641Z,28.60
2023-02-16T15:42:35.476Z,30.67
2023-02-16T15:45:39.585Z,28.25
2023-02-16T15:48:30.163Z,29.08
2023-02-16T15:51:19.888Z,33.40
2023-02-16T15:54:07.952Z,33.20
2023-02-16T15:56:55.582Z,30.15
2023-02-16T15:59:47.525Z,29.85
2023-02-16T16:02:36.582Z,31.23
2023-02-16T16:05:27.513Z,31.88
2023-02-16T16:08:14.662Z,37.28
2023-02-16T16:11:01.129Z,28.92
2023-02-16T16:13:47.066Z,32.35
2023-02-16T16:16:33.871Z,36.55
2023-02-16T16:19:21.338Z,35.58
2023-02-16T16:22:30.299Z,33.00
2023-02-16T16:25:39.618Z,37.63
2023-02-16T16:28:38.184Z,37.25
2023-02-16T16:31:41.186Z,38.35
2023-02-16T16:34:38.102Z,40.80
2023-02-16T16:37:28.914Z,41.97
2023-02-16T16:40:22.741Z,37.75
2023-02-16T16:43:17.422Z,46.28
2023-02-16T16:46:13.727Z,47.08
2023-02-16T16:49:03.530Z,49.60
2023-02-16T16:51:52.792Z,51.80
2023-02-16T16:54:40.565Z,45.22
2023-02-16T16:57:26.241Z,55.03
2023-02-16T17:00:13.212Z,53.65
2023-02-16T17:02:59.181Z,60.50
2023-02-16T17:05:48.934Z,63.15
2023-02-16T17:08:35.201Z,61.80
2023-02-16T17:11:25.740Z,60.55
2023-02-16T17:14:16.769Z,64.40
2023-02-16T17:17:02.668Z,62.42
2023-02-16T17:19:48.416Z,61.60
2023-02-16T17:22:34.081Z,65.43
2023-02-16T17:25:20.246Z,69.70
2023-02-16T17:28:07.732Z,60.30
2023-02-16T17:30:53.786Z,66.93
2023-02-16T17:33:39.498Z,64.60
2023-02-16T17:36:27.290Z,65.68
2023-02-16T17:39:13.453Z,71.10
2023-02-16T17:41:59.405Z,67.32
2023-02-16T17:44:46.824Z,70.20
2023-02-16T17:47:32.334Z,70.70
2023-02-16T17:50:19.792Z,77.53
2023-02-16T17:53:11.721Z,75.47
2023-02-16T17:55:58.103Z,78.05
2023-02-16T17:58:44.640Z,71.55
2023-02-16T18:01:33.013Z,71.78
2023-02-16T18:04:18.749Z,81.00
2023-02-16T18:07:04.436Z,68.70
2023-02-16T18:09:50.253Z,70.47
2023-02-16T18:12:35.778Z,71.63
2023-02-16T18:15:21.368Z,77.25
2023-02-16T18:18:21.062Z,80.75
2023-02-16T18:21:07.552Z,70.50
2023-02-16T18:23:56.821Z,75.35
2023-02-16T18:26:42.738Z,79.20
2023-02-16T18:29:28.473Z,81.07
2023-02-16T18:32:14.379Z,81.80
2023-02-16T18:35:01.716Z,81.68
2023-02-16T18:37:47.660Z,70.97
2023-02-16T18:40:33.435Z,88.30
2023-02-16T18:43:19.863Z,84.15
2023-02-16T18:46:06.974Z,73.25
2023-02-16T18:48:53.002Z,78.97
2023-02-16T18:51:40.228Z,79.93
2023-02-16T18:54:26.301Z,76.20
2023-02-16T18:57:12.560Z,80.57
2023-02-16T18:59:59.242Z,83.13
2023-02-16T19:02:44.961Z,83.82
2023-02-16T19:05:31.077Z,78.00
2023-02-16T19:08:18.563Z,83.55
2023-02-16T19:11:04.612Z,85.78
2023-02-16T19:13:50.651Z,82.90
2023-02-16T19:16:36.611Z,82.50
2023-02-16T19:19:22.525Z,80.10
2023-02-16T19:22:08.300Z,84.32
2023-02-16T19:24:55.158Z,88.47
2023-02-16T19:27:41.018Z,85.93
2023-02-16T19:30:26.943Z,86.32
2023-02-16T19:33:12.816Z,79.70
2023-02-16T19:36:04.101Z,84.25
2023-02-16T19:38:50.181Z,79.65
2023-02-16T19:41:39.321Z,82.18
2023-02-16T19:44:24.847Z,84.32
2023-02-16T19:47:11.221Z,83.82
2023-02-16T19:49:57.317Z,82.05
2023-02-16T19:52:42.980Z,83.60
2023-02-16T19:55:29.065Z,76.90
2023-02-16T19:58:16.070Z,84.20
2023-02-16T20:01:06.943Z,84.25
2023-02-16T20:03:54.454Z,77.82
2023-02-16T20:06:41.946Z,90.20
2023-02-16T20:09:28.094Z,81.97
2023-02-16T20:12:13.996Z,87.63
2023-02-16T20:15:01.285Z,84.15
2023-02-16T20:17:46.956Z,82.38
2023-02-16T20:20:33.580Z,84.10
2023-02-16T20:23:19.994Z,81.45
2023-02-16T20:26:07.403Z,81.80
2023-02-16T20:28:54.108Z,90.20
2023-02-16T20:31:50.718Z,91.43
2023-02-16T20:34:36.903Z,93.03
2023-02-16T20:37:22.849Z,85.75
2023-02-16T20:40:09.604Z,84.80
2023-02-16T20:42:55.700Z,88.63
2023-02-16T20:45:42.961Z,90.45
2023-02-16T20:48:29.864Z,85.30
2023-02-16T20:51:18.523Z,89.55
2023-02-16T20:54:05.193Z,82.57
2023-02-16T20:56:50.645Z,85.10
2023-02-16T20:59:37.746Z,88.28
2023-02-16T21:02:23.573Z,90.97
2023-02-16T21:05:11.261Z,89.55
2023-02-16T21:07:57.091Z,97.03
2023-02-16T21:10:42.733Z,92.30
2023-02-16T21:13:28.410Z,95.18
2023-02-16T21:16:14.793Z,94.45
2023-02-16T21:19:00.729Z,85.13
2023-02-16T21:21:47.792Z,89.20
2023-02-16T21:24:33.666Z,81.85
2023-02-16T21:27:19.719Z,87.50
2023-02-16T21:30:07.379Z,82.47
2023-02-16T21:32:53.282Z,88.60
2023-02-16T21:35:39.201Z,81.72
2023-02-16T21:38:26.538Z,78.47
2023-02-16T21:41:25.189Z,68.78
2023-02-16T21:44:13.098Z,58.30
2023-02-16T21:46:58.910Z,59.63
2023-02-16T21:49:46.384Z,49.13
2023-02-16T21:52:32.091Z,54.13
2023-02-16T21:55:38.368Z,48.67
2023-02-16T21:58:30.075Z,46.92
2023-02-16T22:04:06.524Z,43.28
2023-02-16T22:06:52.305Z,45.63
2023-02-16T22:09:37.902Z,38.55
2023-02-16T22:12:24.847Z,41.20
2023-02-16T22:15:10.819Z,39.47
2023-02-16T22:17:56.579Z,43.20
2023-02-16T22:20:42.110Z,42.60
2023-02-16T22:23:28.100Z,38.28
2023-02-16T22:26:21.716Z,34.20
2023-02-16T22:29:09.886Z,33.40
2023-02-16T22:31:55.733Z,33.35
2023-02-16T22:34:41.583Z,26.25
2023-02-16T22:37:27.328Z,24.70
2023-02-16T22:40:13.265Z,23.90
2023-02-16T22:42:58.947Z,24.52
2023-02-16T22:45:45.915Z,23.65
2023-02-16T22:48:31.616Z,25.95
2023-02-16T22:51:18.134Z,24.90
2023-02-16T22:54:05.529Z,23.77
2023-02-16T22:56:51.276Z,24.27
2023-02-16T22:59:37.089Z,25.02
2023-02-16T23:02:24.290Z,23.85
2023-02-16T23:05:09.940Z,24.48
2023-02-16T23:07:55.791Z,28.17
2023-02-16T23:10:41.772Z,29.80
2023-02-16T23:13:28.539Z,28.35
2023-02-16T23:16:17.339Z,28.67
2023-02-16T23:19:04.483Z,27.48
2023-02-16T23:21:50.452Z,28.48
2023-02-16T23:24:36.347Z,27.35
2023-02-16T23:27:22.026Z,31.30
2023-02-16T23:30:08.130Z,26.55
2023-02-16T23:32:54.237Z,30.10
2023-02-16T23:35:42.164Z,28.55
2023-02-16T23:38:27.884Z,24.95
2023-02-16T23:41:14.867Z,27.02
2023-02-16T23:44:01.311Z,26.00
2023-02-16T23:46:46.740Z,24.38
2023-02-16T23:49:32.367Z,23.95
2023-02-16T23:52:19.281Z,28.90
2023-02-16T23:55:05.862Z,25.63
2023-02-16T23:57:51.450Z,25.02
